Time;durP1;ratioP1;P1;durP2;ratioP2;P2;SDS_P1;SDS_P2;PMS_P1;PMS_P2;Temp;Humidity;BMP_temperature;BMP_pressure;BME280_temperature;BME280_humidity;BME280_pressure;Samples;Min_cycle;Max_cycle;Signal;HPM_P1;HPM_P2
2022/12/19 00:01:26;;;;;;;12.07;6.10;;;;;;;-8.05;72.39;101111.03;4853178;29;20049;-77
2022/12/19 00:03:57;;;;;;;12.45;5.85;;;;;;;-8.12;72.58;101101.16;4862557;29;20029;-77
2022/12/19 00:06:24;;;;;;;12.35;5.13;;;;;;;-8.14;72.79;101088.38;4864039;29;20025;-77
2022/12/19 00:08:51;;;;;;;12.07;5.43;;;;;;;-7.94;73.17;101119.56;4866353;29;20094;-78
2022/12/19 00:11:21;;;;;;;11.38;5.80;;;;;;;-8.17;72.01;101105.81;4867995;29;20042;-79
2022/12/19 00:13:47;;;;;;;10.15;5.05;;;;;;;-8.38;72.56;101069.47;4868312;29;20050;-79
2022/12/19 00:16:16;;;;;;;10.68;4.93;;;;;;;-8.07;72.33;101126.06;4850748;29;20042;-79
2022/12/19 00:18:43;;;;;;;9.20;4.80;;;;;;;-8.22;72.47;101100.34;4875096;29;20045;-80
2022/12/19 00:21:15;;;;;;;9.63;4.65;;;;;;;-8.48;72.16;101056.00;4857949;29;20053;-78
2022/12/19 00:23:42;;;;;;;8.88;4.75;;;;;;;-8.10;72.58;101105.56;4853505;29;20065;-78
2022/12/19 00:26:15;;;;;;;7.93;4.53;;;;;;;-7.90;72.64;101107.31;4838513;29;20037;-81
2022/12/19 00:28:43;;;;;;;7.68;4.05;;;;;;;-7.71;72.20;101136.69;4854473;29;20045;-80
2022/12/19 00:31:10;;;;;;;7.95;4.10;;;;;;;-7.72;72.17;101118.09;4864614;29;20060;-77
2022/12/19 00:33:39;;;;;;;8.90;3.85;;;;;;;-7.63;72.26;101114.59;4848652;29;20046;-76
2022/12/19 00:36:09;;;;;;;7.07;4.03;;;;;;;-7.51;72.37;101127.41;4848022;29;20058;-77
2022/12/19 00:38:37;;;;;;;;;;;;;;;-7.47;72.12;101117.66;4831130;29;20041;-80
2022/12/19 00:41:12;;;;;;;9.93;4.90;;;;;;;-7.66;71.84;101084.00;4847308;29;20023;-81
2022/12/19 00:43:38;;;;;;;8.65;4.43;;;;;;;-7.64;71.93;101083.38;4847726;29;20049;-78
2022/12/19 00:46:07;;;;;;;8.93;4.05;;;;;;;-7.44;71.77;101114.53;4846932;29;20148;-79
2022/12/19 00:48:33;;;;;;;7.72;3.95;;;;;;;-7.41;72.17;101124.91;4848782;29;20053;-80
2022/12/19 00:51:09;;;;;;;7.97;4.35;;;;;;;-7.43;71.66;101131.47;4847060;29;20410;-80
2022/12/19 00:53:35;;;;;;;10.35;4.63;;;;;;;-7.51;72.23;101129.91;4832426;29;20426;-80
2022/12/19 00:56:05;;;;;;;11.10;4.85;;;;;;;-7.55;71.76;101136.38;4831454;29;20133;-78
2022/12/19 00:58:32;;;;;;;11.05;5.57;;;;;;;-7.57;72.15;101133.69;4833385;29;20042;-78
2022/12/19 01:01:04;;;;;;;8.82;4.47;;;;;;;-7.29;71.79;101146.16;4831940;29;20124;-80
2022/12/19 01:03:30;;;;;;;12.23;5.13;;;;;;;-7.50;71.96;101089.56;4858839;29;20073;-79
2022/12/19 01:05:55;;;;;;;10.93;5.05;;;;;;;-7.16;71.67;101148.06;4810246;29;20046;-77
2022/12/19 01:08:22;;;;;;;11.63;4.88;;;;;;;-7.02;71.95;101151.75;4847214;29;20081;-79
2022/12/19 01:10:49;;;;;;;8.35;4.18;;;;;;;-6.98;71.99;101122.53;4814173;29;20046;-79
2022/12/19 01:13:19;;;;;;;9.02;4.25;;;;;;;-6.88;72.16;101119.09;4828585;29;20136;-78
2022/12/19 01:15:47;;;;;;;8.27;3.92;;;;;;;-6.59;72.10;101138.34;4814332;29;20037;-80
2022/12/19 01:18:13;;;;;;;8.10;4.65;;;;;;;-6.67;72.04;101098.06;4845904;29;20042;-77
2022/12/19 01:20:41;;;;;;;9.70;4.47;;;;;;;-6.36;72.13;101128.41;4837240;29;20072;-78
2022/12/19 01:23:08;;;;;;;8.93;3.53;;;;;;;-6.36;72.34;101133.50;4863746;29;20046;-77
2022/12/19 01:25:37;;;;;;;7.72;3.92;;;;;;;-6.39;71.79;101133.22;4865808;29;20050;-81
2022/12/19 01:28:04;;;;;;;7.57;3.80;;;;;;;-6.41;71.77;101124.63;4862482;29;20078;-78
2022/12/19 01:30:32;;;;;;;7.10;3.67;;;;;;;-6.29;71.76;101121.31;4855640;29;20046;-79
2022/12/19 01:32:59;;;;;;;8.48;3.95;;;;;;;-6.41;71.97;101075.63;4845398;29;20046;-79
2022/12/19 01:35:27;;;;;;;10.35;4.40;;;;;;;-6.02;71.79;101126.78;4798453;29;20038;-80
2022/12/19 01:37:53;;;;;;;8.23;4.10;;;;;;;-6.14;72.37;101096.28;4812980;29;20044;-79
2022/12/19 01:40:21;;;;;;;9.27;4.13;;;;;;;-5.90;72.39;101104.91;4814192;29;20034;-80
2022/12/19 01:42:48;;;;;;;10.35;4.38;;;;;;;-5.67;71.92;101127.00;4817575;29;20038;-79
2022/12/19 01:45:16;;;;;;;10.38;4.45;;;;;;;-5.64;72.05;101119.63;4836780;29;20121;-78
2022/12/19 01:48:19;;;;;;;9.48;4.40;;;;;;;-5.70;71.42;101121.66;4839917;29;20096;-79
2022/12/19 01:50:57;;;;;;;10.13;4.30;;;;;;;-5.82;71.43;101103.84;4818306;29;20083;-80
2022/12/19 01:53:27;;;;;;;8.80;4.05;;;;;;;-5.75;71.20;101123.00;4817277;29;20502;-80
2022/12/19 01:55:55;;;;;;;10.88;4.15;;;;;;;-5.84;71.78;101102.84;4812164;29;20038;-82
2022/12/19 01:58:22;;;;;;;8.68;4.63;;;;;;;-5.90;71.59;101085.50;4810835;29;20050;-79
2022/12/19 02:00:49;;;;;;;7.72;3.90;;;;;;;-5.93;71.79;101085.25;4835967;29;20053;-80
2022/12/19 02:03:19;;;;;;;10.05;4.68;;;;;;;-5.73;72.10;101107.88;4800133;29;20062;-80
2022/12/19 02:05:45;;;;;;;10.00;3.92;;;;;;;-5.97;71.30;101067.16;4810372;29;20525;-78
2022/12/19 02:08:12;;;;;;;10.50;4.35;;;;;;;-5.77;71.47;101104.22;4794250;29;20426;-81
2022/12/19 02:10:38;;;;;;;9.75;4.40;;;;;;;-5.90;71.08;101097.31;4794704;29;20515;-79
2022/12/19 02:13:06;;;;;;;8.27;3.58;;;;;;;-5.96;71.44;101071.47;4794696;29;20042;-78
2022/12/19 02:15:59;;;;;;;9.13;4.32;;;;;;;-5.57;71.92;101130.25;4809321;29;20132;-82
2022/12/19 02:18:55;;;;;;;10.63;5.10;;;;;;;-5.66;71.82;101110.13;4808885;29;20042;-78
2022/12/19 02:21:37;;;;;;;13.32;6.05;;;;;;;-5.57;71.16;101125.19;4803094;29;20582;-78
2022/12/19 02:24:23;;;;;;;;;;;;;;;-5.52;71.68;101124.75;4794381;29;20062;-82
2022/12/19 02:26:59;;;;;;;11.57;5.75;;;;;;;-5.57;71.40;101131.13;4808814;29;19964;-81
2022/12/19 02:29:57;;;;;;;11.48;5.18;;;;;;;-5.71;71.28;101119.03;4798723;29;20057;-80
2022/12/19 02:32:56;;;;;;;14.20;6.68;;;;;;;-5.83;71.90;101091.94;4824990;29;20050;-79
2022/12/19 02:35:33;;;;;;;17.55;8.10;;;;;;;-5.82;71.53;101082.69;4810475;29;20061;-81
2022/12/19 02:38:11;;;;;;;15.35;7.43;;;;;;;-5.76;71.42;101086.56;4793679;29;20408;-79
2022/12/19 02:40:48;;;;;;;14.88;6.90;;;;;;;-5.70;71.56;101082.75;4797530;29;20053;-80
2022/12/19 02:43:17;;;;;;;15.43;7.25;;;;;;;-6.12;71.31;101006.06;4799145;29;20452;-80
2022/12/19 02:45:45;;;;;;;14.63;6.82;;;;;;;-5.69;71.47;101072.72;4836852;29;20214;-80
2022/12/19 02:48:15;;;;;;;14.85;6.00;;;;;;;-5.85;71.81;101039.34;4809353;29;20478;-79
2022/12/19 02:50:44;;;;;;;12.25;5.65;;;;;;;-5.52;71.51;101091.78;4808738;29;20487;-80
2022/12/19 02:53:12;;;;;;;13.48;6.63;;;;;;;-6.27;71.48;100950.00;4840578;29;20068;-79
2022/12/19 02:56:00;;;;;;;18.40;7.82;;;;;;;-5.46;71.57;101079.56;4843182;29;20073;-79
2022/12/19 02:58:45;;;;;;;21.00;8.43;;;;;;;-5.48;71.11;101082.72;4826762;29;20102;-81
2022/12/19 03:01:26;;;;;;;16.67;7.53;;;;;;;-5.42;71.83;101078.13;4827342;29;20430;-80
2022/12/19 03:03:59;;;;;;;18.00;6.93;;;;;;;-5.39;72.00;101080.00;4843939;29;20050;-78
2022/12/19 03:06:42;;;;;;;19.35;7.72;;;;;;;-5.36;72.22;101065.91;4842688;29;20510;-82
2022/12/19 03:09:18;;;;;;;19.98;7.60;;;;;;;-5.45;71.83;101032.22;4827633;29;20468;-82
2022/12/19 03:11:49;;;;;;;16.90;7.47;;;;;;;-5.26;72.06;101052.25;4812277;29;20131;-80
2022/12/19 03:14:20;;;;;;;17.45;7.03;;;;;;;-5.42;71.22;101034.13;4841464;29;20050;-81
2022/12/19 03:16:46;;;;;;;14.38;6.15;;;;;;;-5.29;71.84;101044.41;4842136;29;20077;-79
2022/12/19 03:19:14;;;;;;;20.38;6.72;;;;;;;-5.22;71.38;101064.41;4841817;29;20041;-80
2022/12/19 03:21:49;;;;;;;15.88;6.22;;;;;;;-5.26;71.61;101056.44;4841890;29;20061;-78
2022/12/19 03:24:16;;;;;;;12.65;5.70;;;;;;;-5.34;72.07;101018.69;4826349;29;20057;-79
2022/12/19 03:27:03;;;;;;;9.20;4.65;;;;;;;-5.37;71.28;101004.88;4842694;29;20060;-78
2022/12/19 03:29:35;;;;;;;9.48;4.57;;;;;;;-5.18;70.92;101055.38;4826314;29;20069;-79
2022/12/19 03:32:04;;;;;;;9.75;4.72;;;;;;;-5.28;71.81;101025.88;4841983;29;20503;-80
2022/12/19 03:34:39;;;;;;;9.90;4.95;;;;;;;-5.17;71.41;101049.53;4842751;29;20122;-77
2022/12/19 03:37:09;;;;;;;11.43;4.43;;;;;;;-5.20;71.55;101051.84;4796380;29;20141;-81
2022/12/19 03:39:38;;;;;;;8.50;4.85;;;;;;;-5.30;71.48;101040.09;4841173;29;20490;-81
2022/12/19 03:44:55;;;;;;;11.40;4.90;;;;;;;-5.20;70.69;101049.28;4845311;29;20050;-77
2022/12/19 03:47:34;;;;;;;9.30;4.65;;;;;;;-5.32;71.03;101051.78;4847113;29;20132;-79
2022/12/19 03:50:01;;;;;;;11.57;5.03;;;;;;;-5.47;71.22;101044.81;4816475;29;20062;-77
2022/12/19 03:52:53;;;;;;;9.90;4.53;;;;;;;-5.76;71.10;101002.03;4843972;29;20066;-81
2022/12/19 03:55:28;;;;;;;10.18;4.70;;;;;;;-5.63;71.42;101040.22;4851671;29;20050;-78
2022/12/19 03:58:26;;;;;;;11.00;4.68;;;;;;;-5.80;70.76;101044.00;4868311;29;20049;-80
2022/12/19 04:00:54;;;;;;;10.15;4.20;;;;;;;-5.72;71.57;101036.09;4833056;29;20046;-77
2022/12/19 04:03:28;;;;;;;10.10;4.68;;;;;;;-6.02;70.69;100990.81;4832774;29;20041;-80
2022/12/19 04:05:56;;;;;;;11.27;5.55;;;;;;;-5.84;70.95;101038.56;4815731;29;20409;-77
2022/12/19 04:08:23;;;;;;;10.07;4.40;;;;;;;-5.92;70.85;101032.91;4829844;29;20090;-81
2022/12/19 04:10:54;;;;;;;12.02;5.22;;;;;;;-5.85;71.01;101026.66;4829968;29;20054;-82
2022/12/19 04:13:43;;;;;;;10.00;4.68;;;;;;;-5.88;71.10;101023.88;4829292;29;20042;-82
2022/12/19 04:16:17;;;;;;;10.35;5.07;;;;;;;-5.75;71.13;101034.22;4830428;29;20060;-80
2022/12/19 04:18:48;;;;;;;13.35;4.93;;;;;;;-5.74;71.52;101020.78;4829310;29;20053;-80
2022/12/19 04:21:22;;;;;;;10.45;4.60;;;;;;;-6.04;71.00;100951.78;4847681;29;20042;-79
2022/12/19 04:23:55;;;;;;;11.65;4.85;;;;;;;-6.06;71.74;100941.50;4812472;29;20062;-78
2022/12/19 04:26:23;;;;;;;11.65;5.03;;;;;;;-6.06;71.15;100948.22;4828151;29;20054;-81
2022/12/19 04:28:53;;;;;;;11.70;4.22;;;;;;;-5.84;71.16;101008.16;4826739;29;20038;-79
2022/12/19 04:31:20;;;;;;;10.07;4.65;;;;;;;-5.81;70.73;101029.53;4826516;29;20141;-80
2022/12/19 04:33:46;;;;;;;10.88;4.43;;;;;;;-5.93;70.70;101008.34;4841751;29;20046;-77
2022/12/19 04:36:13;;;;;;;9.63;4.15;;;;;;;-5.97;70.59;101014.81;4826161;29;20077;-80
2022/12/19 04:38:41;;;;;;;12.10;4.90;;;;;;;-6.21;70.88;100980.88;4826331;29;20575;-79
2022/12/19 04:41:13;;;;;;;11.00;3.92;;;;;;;-6.30;71.19;100975.13;4829155;29;20053;-77
2022/12/19 04:43:39;;;;;;;9.10;4.32;;;;;;;-6.03;70.89;101008.41;4812316;29;20131;-79
2022/12/19 04:46:08;;;;;;;8.95;4.13;;;;;;;-6.06;70.90;101001.47;4831528;29;20062;-80
2022/12/19 04:48:35;;;;;;;10.38;4.70;;;;;;;-5.97;71.41;101001.25;4802221;29;20049;-80
2022/12/19 04:51:02;;;;;;;13.88;5.95;;;;;;;-5.93;71.34;101013.41;4812753;29;20077;-78
2022/12/19 04:53:30;;;;;;;10.00;3.83;;;;;;;-6.15;70.88;100970.31;4831674;29;20058;-78
2022/12/19 04:56:04;;;;;;;10.75;4.53;;;;;;;-5.82;71.89;100999.00;4833437;29;20133;-79
2022/12/19 04:58:31;;;;;;;7.82;3.72;;;;;;;-5.57;71.57;101033.84;4832200;29;20141;-79
2022/12/19 05:01:07;;;;;;;9.80;4.13;;;;;;;-5.63;70.83;101017.38;4829202;29;20114;-79
2022/12/19 05:03:34;;;;;;;8.40;4.32;;;;;;;-5.54;70.80;101024.81;4812970;29;20533;-80
2022/12/19 05:06:19;;;;;;;10.70;4.10;;;;;;;-5.53;71.26;101016.44;4813286;29;20042;-78
2022/12/19 05:08:48;;;;;;;9.45;4.60;;;;;;;-5.61;70.92;101002.28;4827542;29;20042;-81
2022/12/19 05:11:20;;;;;;;8.73;4.22;;;;;;;-5.50;71.09;101031.88;4827483;29;20042;-82
2022/12/19 05:13:48;;;;;;;8.05;4.72;;;;;;;-5.83;71.02;100962.59;4819754;29;20071;-79
2022/12/19 05:16:19;;;;;;;8.45;4.32;;;;;;;-5.43;70.48;101022.22;4851439;29;20050;-79
2022/12/19 05:18:45;;;;;;;9.20;4.30;;;;;;;-5.70;70.82;100974.56;4810711;29;20046;-79
2022/12/19 05:21:12;;;;;;;10.48;5.13;;;;;;;-5.75;71.29;100971.69;4810965;29;20065;-82
2022/12/19 05:23:38;;;;;;;9.15;4.53;;;;;;;-5.39;71.20;101026.72;4828072;29;20453;-80
2022/12/19 05:26:05;;;;;;;9.45;4.57;;;;;;;-5.41;70.71;101034.22;4857230;29;20101;-77
2022/12/19 05:28:52;;;;;;;10.77;4.18;;;;;;;-5.39;71.15;101039.41;4854546;29;20050;-78
2022/12/19 05:31:23;;;;;;;9.93;4.00;;;;;;;-5.39;71.41;101027.63;4845520;29;20065;-78
2022/12/19 05:33:55;;;;;;;11.20;4.75;;;;;;;-5.60;70.78;100986.28;4859329;29;20106;-79
2022/12/19 05:36:21;;;;;;;8.52;3.90;;;;;;;-5.80;71.05;100954.38;4844139;29;20049;-77
2022/12/19 05:38:47;;;;;;;9.90;4.63;;;;;;;-5.46;71.27;101016.13;4843621;29;20052;-79
2022/12/19 05:41:16;;;;;;;9.55;5.03;;;;;;;-5.39;71.37;101019.09;4844314;29;20093;-82
2022/12/19 05:43:44;;;;;;;10.10;4.15;;;;;;;-5.51;71.18;100999.66;4828644;29;20131;-82
2022/12/19 05:46:11;;;;;;;8.38;3.58;;;;;;;-5.35;71.28;101027.09;4843478;29;20081;-79
2022/12/19 05:48:38;;;;;;;10.27;3.90;;;;;;;-5.39;71.18;101002.25;4843328;29;20577;-83
2022/12/19 05:51:07;;;;;;;11.35;4.53;;;;;;;-5.32;71.23;100988.34;4826229;29;20053;-79
2022/12/19 05:53:39;;;;;;;9.57;4.13;;;;;;;-5.64;71.14;100936.13;4825078;29;20082;-80
2022/12/19 05:56:10;;;;;;;9.10;3.58;;;;;;;-5.30;71.54;100992.78;4809331;29;20054;-81
2022/12/19 05:58:37;;;;;;;;;;;;;;;-5.16;71.82;101003.06;4796463;29;20050;-82
2022/12/19 06:01:21;;;;;;;7.75;3.83;;;;;;;-5.14;71.78;100999.00;4825273;29;20533;-80
2022/12/19 06:03:48;;;;;;;8.60;3.85;;;;;;;-5.62;71.73;100929.47;4826349;29;20069;-82
2022/12/19 06:06:20;;;;;;;10.98;4.30;;;;;;;-5.66;71.51;100914.81;4827050;29;20035;-79
2022/12/19 06:08:50;;;;;;;10.13;4.57;;;;;;;-5.54;71.99;100933.47;4826186;29;20046;-83
2022/12/19 06:11:17;;;;;;;11.65;4.95;;;;;;;-5.56;71.69;100929.94;4827678;29;20058;-80
2022/12/19 06:13:43;;;;;;;11.60;4.63;;;;;;;-5.11;71.55;101000.84;4811858;29;20046;-82
2022/12/19 06:16:11;;;;;;;8.98;4.45;;;;;;;-5.07;71.55;101002.84;4827011;29;20052;-82
2022/12/19 06:18:38;;;;;;;9.73;4.75;;;;;;;-5.32;71.62;100955.34;4829142;29;20068;-79
2022/12/19 06:21:31;;;;;;;9.55;3.95;;;;;;;-5.02;71.62;100983.78;4813837;29;20045;-82
2022/12/19 06:23:57;;;;;;;9.70;4.10;;;;;;;-5.03;71.82;100979.47;4831074;29;20058;-80
2022/12/19 06:26:24;;;;;;;9.63;4.82;;;;;;;-4.99;72.08;100986.53;4846908;29;20067;-81
2022/12/19 06:28:53;;;;;;;7.63;3.97;;;;;;;-5.50;71.49;100904.13;4832199;29;20110;-81
2022/12/19 06:31:21;;;;;;;10.02;4.18;;;;;;;-5.89;71.86;100843.00;4845949;29;20065;-80
2022/12/19 06:33:48;;;;;;;12.68;4.53;;;;;;;-5.09;72.22;100969.75;4826791;29;20578;-80
2022/12/19 06:36:32;;;;;;;13.45;4.95;;;;;;;-5.08;71.67;100975.69;4827219;29;20050;-78
2022/12/19 06:39:03;;;;;;;13.20;5.60;;;;;;;-5.01;71.75;100978.78;4825461;29;20054;-81
2022/12/19 06:44:18;;;;;;;14.63;5.97;;;;;;;-4.94;72.58;100964.88;4826892;29;20061;-81
2022/12/19 06:46:44;;;;;;;12.60;5.82;;;;;;;-4.66;72.04;101015.13;4825303;29;20054;-83
2022/12/19 06:49:11;;;;;;;17.98;5.72;;;;;;;-4.63;72.21;101022.09;4811044;29;20052;-81
2022/12/19 06:51:38;;;;;;;13.55;5.18;;;;;;;-4.89;72.31;100975.38;4825021;29;20053;-80
2022/12/19 06:54:05;;;;;;;16.42;6.80;;;;;;;-4.90;72.22;100961.78;4838555;29;20025;-80
2022/12/19 06:56:35;;;;;;;16.48;6.93;;;;;;;-4.92;72.38;100952.31;4821854;29;20050;-81
2022/12/19 06:59:01;;;;;;;14.82;5.63;;;;;;;-4.48;72.37;101012.13;4825580;29;20117;-79
2022/12/19 07:01:57;;;;;;;11.75;5.35;;;;;;;-4.45;72.33;101014.91;4824932;29;20046;-81
2022/12/19 07:04:33;;;;;;;13.60;5.60;;;;;;;-4.91;72.06;100936.31;4796709;29;20485;-80
2022/12/19 07:07:00;;;;;;;14.73;6.50;;;;;;;-4.76;72.36;100954.28;4825770;29;20412;-78
2022/12/19 07:09:29;;;;;;;14.23;5.40;;;;;;;-4.36;72.18;101005.41;4809519;29;20050;-79
2022/12/19 07:11:56;;;;;;;12.52;5.38;;;;;;;-4.30;72.52;101018.50;4811647;29;20081;-80
2022/12/19 07:14:24;;;;;;;11.05;5.53;;;;;;;-4.42;71.71;100992.25;4829781;29;20068;-81
2022/12/19 07:16:53;;;;;;;12.52;5.22;;;;;;;-4.28;72.42;101018.63;4826081;29;20140;-80
2022/12/19 07:19:22;;;;;;;15.43;5.88;;;;;;;-4.19;72.58;101015.84;4811921;29;20107;-80
2022/12/19 07:22:12;;;;;;;14.00;5.78;;;;;;;-4.08;72.69;101017.47;4840412;29;20050;-80
2022/12/19 07:24:38;;;;;;;13.15;6.05;;;;;;;-4.17;72.63;100968.53;4821570;29;20122;-79
2022/12/19 07:27:07;;;;;;;14.25;6.50;;;;;;;-4.02;72.61;100973.81;4827398;29;20530;-82
2022/12/19 07:29:36;;;;;;;12.18;6.28;;;;;;;-3.87;71.97;100979.94;4825703;29;20053;-79
2022/12/19 07:32:02;;;;;;;12.27;6.00;;;;;;;-4.09;72.34;100940.31;4826550;29;20676;-78
2022/12/19 07:34:29;;;;;;;12.80;5.50;;;;;;;-3.72;72.65;100986.84;4810917;29;20053;-81
2022/12/19 07:36:55;;;;;;;11.48;6.18;;;;;;;-4.04;72.46;100927.03;4825551;29;20057;-81
2022/12/19 07:39:21;;;;;;;11.50;5.13;;;;;;;-3.68;72.20;100996.44;4847244;29;20061;-80
2022/12/19 07:41:47;;;;;;;7.50;5.15;;;;;;;-3.69;72.22;100990.50;4838154;29;20057;-81
2022/12/19 07:44:23;;;;;;;12.77;5.93;;;;;;;-3.71;72.25;100991.16;4838043;29;20056;-80
2022/12/19 07:47:44;;;;;;;10.43;5.10;;;;;;;-3.69;72.42;100994.69;4836803;29;20050;-81
2022/12/19 07:50:49;;;;;;;;;;;;;;;;;;;;;
2022/12/19 07:54:17;;;;;;;13.35;6.45;;;;;;;-5.01;71.97;100770.59;4809603;29;20081;-80
2022/12/19 07:56:49;;;;;;;13.38;6.10;;;;;;;-4.11;72.08;100953.72;4816196;29;20106;-78
2022/12/19 08:03:27;;;;;;;15.38;5.88;;;;;;;-3.71;72.83;100980.97;4797609;29;20051;-81
2022/12/19 08:05:59;;;;;;;18.33;6.68;;;;;;;-4.20;72.55;100915.84;4770970;30;20512;-81
2022/12/19 08:08:37;;;;;;;14.68;6.55;;;;;;;-5.08;72.33;100719.28;4809634;29;20725;-79
2022/12/19 08:11:12;;;;;;;;;;;;;;;-3.42;72.52;101005.81;4817013;29;20120;-81
2022/12/19 08:13:40;;;;;;;19.20;7.00;;;;;;;-3.34;72.80;101003.81;4803300;29;19944;-80
2022/12/19 08:16:06;;;;;;;14.77;6.80;;;;;;;-3.48;72.39;100990.16;4822989;29;20077;-77
2022/12/19 08:18:43;;;;;;;17.05;7.80;;;;;;;-3.36;72.46;101001.16;4823187;29;20054;-80
2022/12/19 08:21:10;;;;;;;14.02;6.40;;;;;;;-3.36;71.86;101006.25;4821880;29;20042;-77
2022/12/19 08:23:40;;;;;;;15.50;7.05;;;;;;;-3.74;72.39;100928.22;4827806;29;20050;-78
2022/12/19 08:26:23;;;;;;;15.80;7.80;;;;;;;-3.25;72.65;100998.44;4827127;29;20069;-79
2022/12/19 08:28:54;;;;;;;19.52;8.13;;;;;;;-3.42;72.38;100961.69;4846517;29;20019;-79
2022/12/19 08:31:26;;;;;;;17.30;8.27;;;;;;;-3.39;72.37;100957.66;4833277;29;20050;-77
2022/12/19 08:33:56;;;;;;;13.57;7.40;;;;;;;-3.19;72.29;100994.63;4815464;29;20057;-80
2022/12/19 08:36:23;;;;;;;16.90;7.45;;;;;;;-3.26;72.52;100973.78;4812979;29;20050;-81
2022/12/19 08:38:50;;;;;;;17.17;7.30;;;;;;;-3.05;72.21;100990.44;4797341;29;20042;-79
2022/12/19 08:41:20;;;;;;;20.70;8.75;;;;;;;-3.05;72.55;100971.72;4810860;29;20046;-79
2022/12/19 08:43:52;;;;;;;16.45;7.95;;;;;;;-2.96;72.79;100979.97;4811278;29;20053;-80
2022/12/19 08:46:19;;;;;;;15.18;7.25;;;;;;;-3.12;72.08;100965.34;4811524;29;20082;-78
2022/12/19 08:48:45;;;;;;;13.75;6.65;;;;;;;-3.17;72.40;100943.78;4813485;29;20091;-80
2022/12/19 08:51:13;;;;;;;17.15;7.55;;;;;;;-3.01;72.25;100967.72;4814383;29;20521;-81
2022/12/19 08:53:41;;;;;;;16.77;7.88;;;;;;;-2.92;72.65;100969.22;4829789;29;20042;-81
2022/12/19 08:56:20;;;;;;;13.52;7.22;;;;;;;-2.83;72.13;100984.19;4835452;29;20087;-78
2022/12/19 08:58:47;;;;;;;12.13;6.63;;;;;;;-3.03;72.47;100942.13;4867722;29;20102;-79
2022/12/19 09:01:17;;;;;;;18.98;7.80;;;;;;;-2.69;72.63;100979.09;4866404;29;20315;-81
2022/12/19 09:03:43;;;;;;;15.73;7.53;;;;;;;-2.69;73.18;100961.25;4864154;29;20516;-79
2022/12/19 09:06:11;;;;;;;16.25;7.57;;;;;;;-2.46;73.33;100981.41;4848670;29;20069;-82
2022/12/19 09:08:39;;;;;;;16.58;7.55;;;;;;;-2.97;72.62;100868.66;4830697;29;20045;-78
2022/12/19 09:11:11;;;;;;;14.98;7.72;;;;;;;-2.26;72.71;100974.13;4846416;29;20049;-82
2022/12/19 09:13:38;;;;;;;16.30;7.50;;;;;;;-2.26;72.52;100974.13;4850370;29;20054;-78
2022/12/19 09:16:20;;;;;;;15.52;7.38;;;;;;;-2.35;71.85;100963.38;4846763;29;20049;-79
2022/12/19 09:18:51;;;;;;;15.52;6.82;;;;;;;-2.53;72.52;100958.88;4829703;29;20050;-81
2022/12/19 09:21:21;;;;;;;15.43;6.90;;;;;;;-2.40;72.58;100972.41;4845839;29;20124;-82
2022/12/19 09:23:55;;;;;;;16.95;7.07;;;;;;;-2.33;72.97;100972.00;4859711;29;20057;-82
2022/12/19 09:26:23;;;;;;;15.02;7.28;;;;;;;-2.72;72.84;100891.47;4846932;29;20094;-82
2022/12/19 09:28:49;;;;;;;14.60;7.20;;;;;;;-2.14;72.63;100963.78;4848476;29;20050;-82
2022/12/19 09:31:19;;;;;;;13.70;7.20;;;;;;;-2.18;72.57;100952.53;4831971;29;20045;-78
2022/12/19 09:33:46;;;;;;;14.57;6.00;;;;;;;-2.36;72.30;100920.81;4861983;29;20050;-82
2022/12/19 09:36:21;;;;;;;16.48;7.35;;;;;;;-2.10;72.41;100975.97;4844860;29;20051;-79
2022/12/19 09:38:48;;;;;;;16.08;7.50;;;;;;;-2.34;72.74;100925.22;4846316;29;20053;-82
2022/12/19 09:41:28;;;;;;;16.92;7.18;;;;;;;-1.97;73.18;100969.94;4852764;29;20053;-80
2022/12/19 09:44:21;;;;;;;14.05;7.13;;;;;;;-1.86;72.68;100970.59;4825587;29;20049;-79
2022/12/19 09:47:03;;;;;;;14.35;6.97;;;;;;;-1.74;72.48;100971.31;4851817;29;20136;-82
2022/12/19 09:49:36;;;;;;;12.68;7.07;;;;;;;-1.69;73.11;100963.94;4859768;29;20069;-78
2022/12/19 09:52:41;;;;;;;14.13;7.07;;;;;;;-1.95;72.66;100919.88;4859120;29;20105;-78
2022/12/19 09:55:27;;;;;;;14.30;6.63;;;;;;;-1.78;72.59;100954.06;4833494;29;20041;-80
2022/12/19 09:58:16;;;;;;;13.70;7.15;;;;;;;-1.90;73.18;100930.34;4832306;29;20058;-79
2022/12/19 10:00:48;;;;;;;16.50;6.47;;;;;;;-2.00;72.28;100932.38;4833237;29;20117;-80
2022/12/19 10:03:22;;;;;;;15.68;6.32;;;;;;;-1.85;72.27;100967.25;4818447;29;20049;-79
2022/12/19 10:06:17;;;;;;;15.77;7.53;;;;;;;-1.75;73.24;100959.31;4838572;29;20076;-80
2022/12/19 10:08:44;;;;;;;15.88;6.97;;;;;;;-2.21;72.92;100882.63;4829005;29;20065;-79
2022/12/19 10:11:14;;;;;;;14.07;7.07;;;;;;;-1.77;72.63;100970.25;4818727;29;20430;-78
2022/12/19 10:14:02;;;;;;;13.77;7.07;;;;;;;-1.75;72.91;100959.31;4838342;29;20110;-79
2022/12/19 10:16:47;;;;;;;12.00;6.38;;;;;;;-2.06;73.07;100908.13;4843151;29;20071;-83
2022/12/19 10:19:30;;;;;;;11.60;6.28;;;;;;;-1.91;73.15;100920.94;4817084;29;20034;-81
2022/12/19 10:22:20;;;;;;;13.43;6.82;;;;;;;-1.60;73.19;100967.03;4847448;29;20067;-81
2022/12/19 10:25:15;;;;;;;13.98;6.00;;;;;;;-1.51;73.35;100964.13;4832666;29;20038;-82
2022/12/19 10:27:55;;;;;;;14.38;6.65;;;;;;;-1.53;73.16;100963.16;4816346;29;20121;-79
2022/12/19 10:30:28;;;;;;;12.38;6.38;;;;;;;-1.82;72.79;100912.16;4833792;29;20049;-80
2022/12/19 10:33:16;;;;;;;14.60;7.35;;;;;;;-1.54;73.05;100959.72;4815794;29;20073;-80
2022/12/19 10:36:09;;;;;;;12.57;6.55;;;;;;;-1.59;72.69;100965.38;4831469;29;20069;-78
2022/12/19 10:38:58;;;;;;;12.73;6.53;;;;;;;-1.79;73.02;100928.44;4827526;29;20182;-81
2022/12/19 10:41:30;;;;;;;15.90;6.75;;;;;;;-1.63;73.06;100963.41;4829921;29;20155;-79
2022/12/19 10:44:06;;;;;;;13.30;6.50;;;;;;;-1.71;73.46;100957.84;4830174;29;20049;-78
2022/12/19 10:46:45;;;;;;;14.88;6.90;;;;;;;-1.56;73.09;100963.84;4845785;29;20049;-79
2022/12/19 10:49:20;;;;;;;12.25;6.40;;;;;;;-1.49;73.35;100956.56;4813453;29;20420;-82
2022/12/19 10:52:06;;;;;;;15.50;6.38;;;;;;;-1.69;73.24;100918.84;4832159;29;20046;-81
2022/12/19 10:54:36;;;;;;;12.73;7.32;;;;;;;-1.48;72.69;100959.19;4858335;29;20149;-78
2022/12/19 10:57:21;;;;;;;14.60;7.47;;;;;;;-1.43;73.36;100957.81;4843270;29;20049;-80
2022/12/19 11:00:03;;;;;;;18.15;7.68;;;;;;;-1.40;73.19;100954.53;4828418;29;20485;-80
2022/12/19 11:02:41;;;;;;;12.63;6.70;;;;;;;-1.42;72.68;100956.13;4827689;29;20052;-79
2022/12/19 11:05:40;;;;;;;12.98;6.78;;;;;;;-1.44;72.70;100956.03;4842789;29;20038;-80
2022/12/19 11:08:06;;;;;;;11.43;6.15;;;;;;;-1.45;73.30;100956.81;4845091;29;20037;-82
2022/12/19 11:11:08;;;;;;;11.07;6.35;;;;;;;-1.44;73.31;100952.63;4830080;29;20045;-83
2022/12/19 11:13:36;;;;;;;14.02;6.57;;;;;;;-1.48;72.71;100959.19;4831456;29;20121;-80
2022/12/19 11:16:03;;;;;;;15.13;7.18;;;;;;;-1.48;73.17;100959.19;4847745;29;20050;-80
2022/12/19 11:18:41;;;;;;;15.65;7.72;;;;;;;-1.72;73.82;100918.69;4857001;29;20049;-79
2022/12/19 11:21:31;;;;;;;15.40;6.93;;;;;;;-1.37;73.52;100960.72;4820873;29;20046;-80
2022/12/19 11:24:10;;;;;;;15.50;6.75;;;;;;;-1.43;74.10;100947.59;4829935;29;20070;-79
2022/12/19 11:26:48;;;;;;;16.83;7.18;;;;;;;-1.23;73.99;100961.53;4837418;29;20049;-83
2022/12/19 11:29:26;;;;;;;13.45;7.53;;;;;;;-1.16;73.95;100964.41;4862549;29;20099;-81
2022/12/19 11:32:09;;;;;;;15.07;6.70;;;;;;;-1.29;73.22;100934.72;4861091;29;20049;-82
2022/12/19 11:34:35;;;;;;;14.93;6.80;;;;;;;-1.33;73.61;100920.03;4861136;29;20113;-79
2022/12/19 11:37:16;;;;;;;17.23;7.25;;;;;;;-1.10;73.08;100963.06;4854578;29;20071;-79
2022/12/19 11:39:51;;;;;;;17.42;8.13;;;;;;;-1.35;72.71;100939.50;4847284;29;20046;-78
2022/12/19 11:42:35;;;;;;;15.30;7.22;;;;;;;-1.26;73.63;100961.34;4848459;29;20057;-79
2022/12/19 11:45:16;;;;;;;12.35;6.78;;;;;;;-1.27;73.74;100967.25;4857413;29;20057;-77
2022/12/19 11:48:24;;;;;;;13.70;7.32;;;;;;;-2.14;74.01;100811.66;4857397;29;20113;-82
2022/12/19 11:51:34;;;;;;;12.63;7.15;;;;;;;-1.51;73.34;100900.28;4765173;30;20043;-82
2022/12/19 11:54:11;;;;;;;15.35;7.43;;;;;;;-0.99;73.31;100978.16;4813973;29;20066;-80
2022/12/19 11:56:40;;;;;;;14.77;7.13;;;;;;;-2.27;73.20;100786.19;4824848;29;20046;-81
2022/12/19 11:59:36;;;;;;;16.02;7.25;;;;;;;-0.93;73.18;100997.25;4810186;29;20050;-82
2022/12/19 12:02:35;;;;;;;15.68;7.60;;;;;;;-0.99;73.84;100953.47;4821815;29;20042;-80